createdAt,value
2018-10-09T00:00:30.560Z,1017.72
2018-10-09T00:01:30.484Z,1017.70
2018-10-09T00:03:23.258Z,1017.67
2018-10-09T00:04:23.187Z,1017.63
2018-10-09T00:06:15.936Z,1017.57
2018-10-09T00:07:15.869Z,1017.58
2018-10-09T00:09:08.670Z,1017.61
2018-10-09T00:10:08.582Z,1017.64
2018-10-09T00:12:01.344Z,1017.65
2018-10-09T00:13:01.273Z,1017.64
2018-10-09T00:14:54.048Z,1017.61
2018-10-09T00:15:53.959Z,1017.60
2018-10-09T00:17:46.727Z,1017.57
2018-10-09T00:18:46.655Z,1017.61
2018-10-09T00:20:39.469Z,1017.54
2018-10-09T00:21:39.387Z,1017.53
2018-10-09T00:23:32.165Z,1017.48
2018-10-09T00:24:32.088Z,1017.45
2018-10-09T00:26:24.874Z,1017.46
2018-10-09T00:27:24.797Z,1017.48
2018-10-09T00:29:17.575Z,1017.46
2018-10-09T00:32:10.254Z,1017.45
2018-10-09T00:33:10.182Z,1017.46
2018-10-09T00:35:02.957Z,1017.48
2018-10-09T00:36:02.874Z,1017.43
2018-10-09T00:37:55.651Z,1017.45
2018-10-09T00:38:55.575Z,1017.42
2018-10-09T00:40:48.335Z,1017.40
2018-10-09T00:41:48.256Z,1017.36
2018-10-09T00:43:41.035Z,1017.37
2018-10-09T00:44:40.970Z,1017.37
2018-10-09T00:46:33.719Z,1017.35
2018-10-09T00:47:33.646Z,1017.40
2018-10-09T00:49:26.448Z,1017.43
2018-10-09T00:50:26.370Z,1017.50
2018-10-09T00:52:19.138Z,1017.57
2018-10-09T00:53:19.067Z,1017.60
2018-10-09T00:55:11.870Z,1017.57
2018-10-09T00:56:11.771Z,1017.53
2018-10-09T00:58:04.531Z,1017.53
2018-10-09T00:59:04.464Z,1017.50
2018-10-09T01:00:57.232Z,1017.47
2018-10-09T01:01:57.158Z,1017.48
2018-10-09T01:03:49.918Z,1017.46
2018-10-09T01:04:49.837Z,1017.49
2018-10-09T01:06:42.623Z,1017.45
2018-10-09T01:07:42.540Z,1017.45
2018-10-09T01:09:35.308Z,1017.48
2018-10-09T01:10:35.237Z,1017.54
2018-10-09T01:12:28.005Z,1017.53
2018-10-09T01:13:27.928Z,1017.57
2018-10-09T01:15:20.701Z,1017.59
2018-10-09T01:16:20.617Z,1017.61
2018-10-09T01:18:13.388Z,1017.70
2018-10-09T01:19:13.319Z,1017.67
2018-10-09T01:21:06.106Z,1017.67
2018-10-09T01:22:06.025Z,1017.71
2018-10-09T01:23:58.800Z,1017.74
2018-10-09T01:24:58.733Z,1017.75
2018-10-09T01:26:51.486Z,1017.68
2018-10-09T01:27:51.412Z,1017.67
2018-10-09T01:29:44.189Z,1017.67
2018-10-09T01:30:44.129Z,1017.69
2018-10-09T01:32:36.852Z,1017.68
2018-10-09T01:33:36.780Z,1017.69
2018-10-09T01:35:29.552Z,1017.60
2018-10-09T01:36:29.459Z,1017.61
2018-10-09T01:38:22.222Z,1017.61
2018-10-09T01:39:22.153Z,1017.59
2018-10-09T01:41:14.934Z,1017.62
2018-10-09T01:42:14.861Z,1017.58
2018-10-09T01:44:07.632Z,1017.55
2018-10-09T01:45:07.542Z,1017.55
2018-10-09T01:47:00.329Z,1017.59
2018-10-09T01:48:00.249Z,1017.59
2018-10-09T01:49:53.020Z,1017.52
2018-10-09T01:50:52.941Z,1017.52
2018-10-09T01:52:45.707Z,1017.49
2018-10-09T01:53:45.636Z,1017.48
2018-10-09T01:55:38.448Z,1017.52
2018-10-09T01:56:38.328Z,1017.49
2018-10-09T01:58:31.103Z,1017.53
2018-10-09T01:59:31.048Z,1017.54
2018-10-09T02:01:23.807Z,1017.57
2018-10-09T02:02:23.743Z,1017.54
2018-10-09T02:04:16.516Z,1017.55
2018-10-09T02:05:16.437Z,1017.53
2018-10-09T02:07:09.185Z,1017.48
2018-10-09T02:08:09.123Z,1017.51
2018-10-09T02:10:01.883Z,1017.47
2018-10-09T02:11:01.799Z,1017.53
2018-10-09T02:12:54.559Z,1017.49
2018-10-09T02:13:54.489Z,1017.51
2018-10-09T02:15:47.295Z,1017.54
2018-10-09T02:16:47.195Z,1017.57
2018-10-09T02:18:39.964Z,1017.63
2018-10-09T02:19:39.900Z,1017.59
2018-10-09T02:21:32.900Z,1017.59
2018-10-09T02:22:32.739Z,1017.58
2018-10-09T02:24:25.649Z,1017.65
2018-10-09T02:25:25.588Z,1017.68
2018-10-09T02:27:18.518Z,1017.70
2018-10-09T02:28:18.365Z,1017.69
2018-10-09T02:30:11.356Z,1017.77
2018-10-09T02:31:11.254Z,1017.75
2018-10-09T02:33:04.187Z,1017.79
2018-10-09T02:34:04.065Z,1017.77
2018-10-09T02:35:56.914Z,1017.77
2018-10-09T02:36:56.798Z,1017.70
2018-10-09T02:38:49.592Z,1017.72
2018-10-09T02:39:49.524Z,1017.73
2018-10-09T02:41:42.413Z,1017.70
2018-10-09T02:42:42.289Z,1017.70
2018-10-09T02:44:35.105Z,1017.68
2018-10-09T02:45:35.036Z,1017.65
2018-10-09T02:47:27.828Z,1017.64
2018-10-09T02:48:27.747Z,1017.65
2018-10-09T02:50:20.676Z,1017.68
2018-10-09T02:51:20.609Z,1017.68
2018-10-09T02:53:13.476Z,1017.66
2018-10-09T02:54:13.389Z,1017.70
2018-10-09T02:56:06.388Z,1017.68
2018-10-09T02:57:06.215Z,1017.66
2018-10-09T02:58:59.009Z,1017.70
2018-10-09T02:59:58.953Z,1017.68
2018-10-09T03:01:51.828Z,1017.74
2018-10-09T03:02:51.769Z,1017.68
2018-10-09T03:04:44.588Z,1017.69
2018-10-09T03:05:44.487Z,1017.68
2018-10-09T03:07:37.375Z,1017.63
2018-10-09T03:08:37.405Z,1017.63
2018-10-09T03:10:30.137Z,1017.57
2018-10-09T03:11:29.962Z,1017.55
2018-10-09T03:13:22.711Z,1017.55
2018-10-09T03:14:22.640Z,1017.56
2018-10-09T03:16:15.422Z,1017.53
2018-10-09T03:17:15.338Z,1017.53
2018-10-09T03:19:08.106Z,1017.54
2018-10-09T03:20:08.031Z,1017.50
2018-10-09T03:22:00.816Z,1017.54
2018-10-09T03:23:00.720Z,1017.51
2018-10-09T03:24:53.518Z,1017.52
2018-10-09T03:25:53.420Z,1017.55
2018-10-09T03:27:46.185Z,1017.54
2018-10-09T03:28:46.113Z,1017.57
2018-10-09T03:30:38.901Z,1017.53
2018-10-09T03:31:38.810Z,1017.52
2018-10-09T03:33:31.619Z,1017.49
2018-10-09T03:34:31.533Z,1017.44
2018-10-09T03:36:24.325Z,1017.39
2018-10-09T03:37:24.232Z,1017.37
2018-10-09T03:39:16.995Z,1017.37
2018-10-09T03:40:16.924Z,1017.35
2018-10-09T03:42:09.720Z,1017.31
2018-10-09T03:43:09.628Z,1017.31
2018-10-09T03:45:02.451Z,1017.36
2018-10-09T03:46:02.322Z,1017.36
2018-10-09T03:47:55.104Z,1017.38
2018-10-09T03:48:55.020Z,1017.40
2018-10-09T03:50:47.812Z,1017.41
2018-10-09T03:51:47.750Z,1017.45
2018-10-09T03:53:40.523Z,1017.46
2018-10-09T03:54:40.430Z,1017.46
2018-10-09T03:56:33.213Z,1017.44
2018-10-09T03:57:33.140Z,1017.46
2018-10-09T03:59:25.916Z,1017.46
2018-10-09T04:00:25.843Z,1017.48
2018-10-09T04:02:18.607Z,1017.41
2018-10-09T04:03:18.534Z,1017.46
2018-10-09T04:05:11.282Z,1017.40
2018-10-09T04:06:11.215Z,1017.42
2018-10-09T04:08:03.983Z,1017.41
2018-10-09T04:09:03.935Z,1017.42
2018-10-09T04:10:56.657Z,1017.43
2018-10-09T04:11:56.589Z,1017.40
2018-10-09T04:13:49.359Z,1017.39
2018-10-09T04:14:49.280Z,1017.38
2018-10-09T04:16:42.051Z,1017.40
2018-10-09T04:17:41.967Z,1017.44
2018-10-09T04:19:34.823Z,1017.43
2018-10-09T04:20:34.660Z,1017.42
2018-10-09T04:22:27.431Z,1017.38
2018-10-09T04:23:27.352Z,1017.40
2018-10-09T04:25:20.119Z,1017.47
2018-10-09T04:26:20.041Z,1017.47
2018-10-09T04:28:12.826Z,1017.43
2018-10-09T04:29:12.742Z,1017.42
2018-10-09T04:31:05.519Z,1017.34
2018-10-09T04:32:05.426Z,1017.42
2018-10-09T04:33:58.188Z,1017.36
2018-10-09T04:34:58.105Z,1017.40
2018-10-09T04:36:50.882Z,1017.40
2018-10-09T04:37:50.803Z,1017.40
2018-10-09T04:39:43.591Z,1017.45
2018-10-09T04:40:43.498Z,1017.46
2018-10-09T04:42:36.287Z,1017.47
2018-10-09T04:43:36.199Z,1017.47
2018-10-09T04:45:29.025Z,1017.52
2018-10-09T04:46:28.885Z,1017.50
2018-10-09T04:48:21.661Z,1017.50
2018-10-09T04:49:21.574Z,1017.54
2018-10-09T04:51:14.348Z,1017.50
2018-10-09T04:52:14.271Z,1017.54
2018-10-09T04:54:07.020Z,1017.51
2018-10-09T04:55:06.952Z,1017.51
2018-10-09T04:56:59.726Z,1017.48
2018-10-09T04:57:59.646Z,1017.48
2018-10-09T04:59:52.452Z,1017.52
2018-10-09T05:00:52.452Z,1017.57
2018-10-09T05:02:45.142Z,1017.56
2018-10-09T05:03:45.067Z,1017.58
2018-10-09T05:05:37.821Z,1017.55
2018-10-09T05:06:37.751Z,1017.56
2018-10-09T05:08:30.522Z,1017.59
2018-10-09T05:09:30.441Z,1017.58
2018-10-09T05:11:23.219Z,1017.58
2018-10-09T05:12:23.126Z,1017.55
2018-10-09T05:14:15.874Z,1017.62
2018-10-09T05:15:15.812Z,1017.65
2018-10-09T05:17:08.592Z,1017.76
2018-10-09T05:18:08.511Z,1017.79
2018-10-09T05:20:01.255Z,1017.79
2018-10-09T05:21:01.195Z,1017.82
2018-10-09T05:22:53.965Z,1017.82
2018-10-09T05:23:53.880Z,1017.82
2018-10-09T05:25:46.640Z,1017.81
2018-10-09T05:26:46.578Z,1017.76
2018-10-09T05:28:39.341Z,1017.80
2018-10-09T05:29:39.273Z,1017.75
2018-10-09T05:31:32.094Z,1017.73
2018-10-09T05:32:31.952Z,1017.70
2018-10-09T05:34:24.712Z,1017.73
2018-10-09T05:35:24.654Z,1017.70
2018-10-09T05:37:17.436Z,1017.78
2018-10-09T05:38:17.381Z,1017.78
2018-10-09T05:40:10.122Z,1017.78
2018-10-09T05:41:10.048Z,1017.86
2018-10-09T05:43:02.859Z,1017.82
2018-10-09T05:44:02.753Z,1017.80
2018-10-09T05:45:55.506Z,1017.86
2018-10-09T05:46:55.430Z,1017.89
2018-10-09T05:48:48.192Z,1017.89
2018-10-09T05:49:48.115Z,1017.84
2018-10-09T05:51:40.873Z,1017.97
2018-10-09T05:52:40.862Z,1018.02
2018-10-09T05:54:33.561Z,1018.14
2018-10-09T05:55:33.485Z,1018.13
2018-10-09T05:57:26.246Z,1018.18
2018-10-09T05:58:26.175Z,1018.12
2018-10-09T06:00:18.926Z,1018.14
2018-10-09T06:01:18.859Z,1018.14
2018-10-09T06:03:11.645Z,1018.16
2018-10-09T06:04:11.546Z,1018.21
2018-10-09T06:06:04.384Z,1018.24
2018-10-09T06:07:04.271Z,1018.29
2018-10-09T06:08:57.111Z,1018.31
2018-10-09T06:09:57.050Z,1018.33
2018-10-09T06:11:49.963Z,1018.27
2018-10-09T06:12:49.758Z,1018.21
2018-10-09T06:14:42.559Z,1018.20
2018-10-09T06:15:42.658Z,1018.17
2018-10-09T06:17:35.381Z,1018.11
2018-10-09T06:18:35.204Z,1018.17
2018-10-09T06:20:28.009Z,1018.18
2018-10-09T06:21:27.890Z,1018.24
2018-10-09T06:23:20.656Z,1018.23
2018-10-09T06:24:20.583Z,1018.26
2018-10-09T06:26:13.352Z,1018.20
2018-10-09T06:27:13.273Z,1018.21
2018-10-09T06:29:06.054Z,1018.19
2018-10-09T06:30:05.971Z,1018.20
2018-10-09T06:31:58.752Z,1018.13
2018-10-09T06:32:58.666Z,1018.21
2018-10-09T06:34:51.425Z,1018.17
2018-10-09T06:35:51.353Z,1018.16
2018-10-09T06:37:44.128Z,1018.21
2018-10-09T06:38:44.052Z,1018.23
2018-10-09T06:40:36.862Z,1018.29
2018-10-09T06:41:36.743Z,1018.32
2018-10-09T06:43:29.525Z,1018.36
2018-10-09T06:44:29.432Z,1018.36
2018-10-09T06:46:22.193Z,1018.29
2018-10-09T06:47:22.123Z,1018.30
2018-10-09T06:49:14.892Z,1018.30
2018-10-09T06:50:14.832Z,1018.33
2018-10-09T06:52:07.586Z,1018.37
2018-10-09T06:53:07.509Z,1018.36
2018-10-09T06:55:00.282Z,1018.39
2018-10-09T06:56:00.222Z,1018.38
2018-10-09T06:57:52.987Z,1018.41
2018-10-09T06:58:52.904Z,1018.46
2018-10-09T07:00:45.680Z,1018.52
2018-10-09T07:01:45.628Z,1018.48
2018-10-09T07:03:38.405Z,1018.51
2018-10-09T07:04:38.310Z,1018.54
2018-10-09T07:06:31.079Z,1018.51
2018-10-09T07:07:31.007Z,1018.53
2018-10-09T07:09:23.830Z,1018.52
2018-10-09T07:10:23.708Z,1018.53
2018-10-09T07:12:16.505Z,1018.50
2018-10-09T07:13:16.424Z,1018.49
2018-10-09T07:15:09.181Z,1018.52
2018-10-09T07:16:09.116Z,1018.53
2018-10-09T07:18:01.926Z,1018.57
2018-10-09T07:19:01.820Z,1018.68
2018-10-09T07:20:54.601Z,1018.68
2018-10-09T07:21:54.536Z,1018.68
2018-10-09T07:23:47.339Z,1018.75
2018-10-09T07:24:47.245Z,1018.74
2018-10-09T07:26:40.010Z,1018.73
2018-10-09T07:27:39.943Z,1018.72
2018-10-09T07:29:32.718Z,1018.77
2018-10-09T07:30:32.635Z,1018.77
2018-10-09T07:32:25.414Z,1018.79
2018-10-09T07:33:25.347Z,1018.80
2018-10-09T07:35:18.117Z,1018.79
2018-10-09T07:36:18.045Z,1018.83
2018-10-09T07:38:10.827Z,1018.85
2018-10-09T07:39:10.753Z,1018.91
2018-10-09T07:41:03.510Z,1018.80
2018-10-09T07:42:03.452Z,1018.81
2018-10-09T07:43:56.285Z,1018.79
2018-10-09T07:44:56.153Z,1018.74
2018-10-09T07:46:48.925Z,1018.73
2018-10-09T07:47:48.843Z,1018.76
2018-10-09T07:49:41.645Z,1018.76
2018-10-09T07:50:41.570Z,1018.78
2018-10-09T07:52:34.316Z,1018.80
2018-10-09T07:53:34.250Z,1018.83
2018-10-09T07:55:27.047Z,1018.86
2018-10-09T07:56:26.959Z,1018.91
2018-10-09T07:58:19.783Z,1018.94
2018-10-09T07:59:19.689Z,1018.93
2018-10-09T08:01:12.457Z,1018.92
2018-10-09T08:02:12.384Z,1018.92
2018-10-09T08:04:05.154Z,1018.93
2018-10-09T08:05:05.115Z,1018.90
2018-10-09T08:06:57.852Z,1019.00
2018-10-09T08:07:57.781Z,1019.03
2018-10-09T08:09:50.552Z,1019.10
2018-10-09T08:10:50.583Z,1019.17
2018-10-09T08:12:43.245Z,1019.20
2018-10-09T08:13:43.178Z,1019.17
2018-10-09T08:15:35.965Z,1019.11
2018-10-09T08:16:35.887Z,1019.15
2018-10-09T08:18:28.740Z,1019.23
2018-10-09T08:19:28.660Z,1019.24
2018-10-09T08:21:21.396Z,1019.28
2018-10-09T08:22:21.404Z,1019.25
2018-10-09T08:24:14.095Z,1019.22
2018-10-09T08:25:14.020Z,1019.22
2018-10-09T08:27:06.805Z,1019.20
2018-10-09T08:28:06.840Z,1019.19
2018-10-09T08:29:59.558Z,1019.27
2018-10-09T08:30:59.452Z,1019.32
2018-10-09T08:32:52.218Z,1019.29
2018-10-09T08:33:52.153Z,1019.32
2018-10-09T08:35:44.959Z,1019.33
2018-10-09T08:36:44.863Z,1019.32
2018-10-09T08:38:37.654Z,1019.32
2018-10-09T08:39:37.583Z,1019.35
2018-10-09T08:41:30.350Z,1019.35
2018-10-09T08:42:30.320Z,1019.39
2018-10-09T08:44:23.070Z,1019.45
2018-10-09T08:45:23.007Z,1019.47
2018-10-09T08:47:15.758Z,1019.43
2018-10-09T08:48:15.720Z,1019.38
2018-10-09T08:50:08.525Z,1019.38
2018-10-09T08:51:08.434Z,1019.40
2018-10-09T08:53:01.260Z,1019.44
2018-10-09T08:54:01.152Z,1019.40
2018-10-09T08:55:54.026Z,1019.41
2018-10-09T08:56:53.910Z,1019.42
2018-10-09T08:58:46.739Z,1019.43
2018-10-09T08:59:46.652Z,1019.43
2018-10-09T09:01:39.423Z,1019.46
2018-10-09T09:02:39.368Z,1019.48
2018-10-09T09:04:32.145Z,1019.48
2018-10-09T09:05:32.072Z,1019.56
2018-10-09T09:07:24.888Z,1019.57
2018-10-09T09:08:24.791Z,1019.58
2018-10-09T09:10:17.568Z,1019.62
2018-10-09T09:11:17.499Z,1019.62
2018-10-09T09:13:10.269Z,1019.70
2018-10-09T09:14:10.250Z,1019.66
2018-10-09T09:16:03.012Z,1019.73
2018-10-09T09:17:02.963Z,1019.73
2018-10-09T09:18:55.777Z,1019.72
2018-10-09T09:19:55.702Z,1019.70
2018-10-09T09:21:48.467Z,1019.75
2018-10-09T09:22:48.399Z,1019.72
2018-10-09T09:24:41.238Z,1019.71
2018-10-09T09:25:41.112Z,1019.70
2018-10-09T09:27:33.914Z,1019.70
2018-10-09T09:28:33.815Z,1019.69
2018-10-09T09:30:26.597Z,1019.66
2018-10-09T09:31:26.530Z,1019.67
2018-10-09T09:33:19.367Z,1019.72
2018-10-09T09:34:19.240Z,1019.74
2018-10-09T09:36:12.019Z,1019.73
2018-10-09T09:37:11.951Z,1019.70
2018-10-09T09:39:04.746Z,1019.66
2018-10-09T09:40:04.662Z,1019.66
2018-10-09T09:41:57.442Z,1019.65
2018-10-09T09:42:57.406Z,1019.63
2018-10-09T09:44:50.164Z,1019.64
2018-10-09T09:45:50.163Z,1019.64
2018-10-09T09:47:42.867Z,1019.65
2018-10-09T09:48:42.800Z,1019.63
2018-10-09T09:50:35.614Z,1019.69
2018-10-09T09:51:35.550Z,1019.71
2018-10-09T09:53:28.346Z,1019.75
2018-10-09T09:54:28.264Z,1019.74
2018-10-09T09:56:21.053Z,1019.72
2018-10-09T09:57:20.996Z,1019.73
2018-10-09T09:59:13.805Z,1019.66
2018-10-09T10:00:13.695Z,1019.71
2018-10-09T10:02:06.460Z,1019.67
2018-10-09T10:03:06.406Z,1019.66
2018-10-09T10:04:59.180Z,1019.63
2018-10-09T10:05:59.110Z,1019.67
2018-10-09T10:07:51.911Z,1019.69
2018-10-09T10:08:51.839Z,1019.71
2018-10-09T10:10:44.639Z,1019.70
2018-10-09T10:11:44.562Z,1019.72
2018-10-09T10:13:37.356Z,1019.66
2018-10-09T10:14:37.294Z,1019.68
2018-10-09T10:16:30.070Z,1019.74
2018-10-09T10:17:30.003Z,1019.72
2018-10-09T10:19:22.790Z,1019.71
2018-10-09T10:20:22.718Z,1019.72
2018-10-09T10:22:15.484Z,1019.74
2018-10-09T10:23:15.422Z,1019.70
2018-10-09T10:25:08.198Z,1019.75
2018-10-09T10:26:08.124Z,1019.75
2018-10-09T10:28:00.896Z,1019.75
2018-10-09T10:29:00.903Z,1019.74
2018-10-09T10:30:53.618Z,1019.67
2018-10-09T10:31:53.551Z,1019.64
2018-10-09T10:33:46.335Z,1019.66
2018-10-09T10:34:46.272Z,1019.68
2018-10-09T10:36:39.063Z,1019.66
2018-10-09T10:37:38.982Z,1019.68
2018-10-09T10:39:31.766Z,1019.65
2018-10-09T10:40:31.693Z,1019.67
2018-10-09T10:42:24.482Z,1019.70
2018-10-09T10:43:24.419Z,1019.69
2018-10-09T10:45:17.252Z,1019.66
2018-10-09T10:46:17.178Z,1019.69
2018-10-09T10:48:09.966Z,1019.66
2018-10-09T10:49:09.963Z,1019.63
2018-10-09T10:51:02.676Z,1019.68
2018-10-09T10:52:02.610Z,1019.67
2018-10-09T10:53:55.385Z,1019.65
2018-10-09T10:54:55.377Z,1019.67
2018-10-09T10:56:48.178Z,1019.68
2018-10-09T10:57:48.068Z,1019.63
2018-10-09T10:59:40.856Z,1019.62
2018-10-09T11:00:40.788Z,1019.52
2018-10-09T11:02:33.573Z,1019.57
2018-10-09T11:03:33.498Z,1019.58
2018-10-09T11:05:26.280Z,1019.52
2018-10-09T11:06:26.218Z,1019.58
2018-10-09T11:08:18.994Z,1019.48
2018-10-09T11:09:18.926Z,1019.48
2018-10-09T11:11:11.730Z,1019.47
2018-10-09T11:12:11.665Z,1019.41
2018-10-09T11:14:04.448Z,1019.33
2018-10-09T11:15:04.385Z,1019.37
2018-10-09T11:16:57.182Z,1019.37
2018-10-09T11:17:57.093Z,1019.34
2018-10-09T11:19:49.894Z,1019.34
2018-10-09T11:20:49.812Z,1019.32
2018-10-09T11:22:42.596Z,1019.36
2018-10-09T11:23:42.532Z,1019.36
2018-10-09T11:25:35.326Z,1019.35
2018-10-09T11:26:35.258Z,1019.32
2018-10-09T11:28:28.023Z,1019.27
2018-10-09T11:29:27.972Z,1019.31
2018-10-09T11:31:20.739Z,1019.31
2018-10-09T11:32:20.720Z,1019.28
2018-10-09T11:34:13.467Z,1019.33
2018-10-09T11:35:13.408Z,1019.31
2018-10-09T11:37:06.200Z,1019.30
2018-10-09T11:38:06.110Z,1019.22
2018-10-09T11:39:58.929Z,1019.20
2018-10-09T11:40:58.837Z,1019.18
2018-10-09T11:42:51.713Z,1019.16
2018-10-09T11:43:51.549Z,1019.15
2018-10-09T11:45:44.331Z,1019.20
2018-10-09T11:46:44.262Z,1019.16
2018-10-09T11:48:37.032Z,1019.18
2018-10-09T11:49:36.975Z,1019.18
2018-10-09T11:51:29.755Z,1019.16
2018-10-09T11:52:29.681Z,1019.17
2018-10-09T11:54:22.460Z,1019.17
2018-10-09T11:55:22.385Z,1019.17
2018-10-09T11:57:15.172Z,1019.17
2018-10-09T11:58:15.174Z,1019.17
2018-10-09T12:00:07.891Z,1019.14
2018-10-09T12:01:07.819Z,1019.13
2018-10-09T12:03:00.623Z,1019.13
2018-10-09T12:04:00.564Z,1019.09
2018-10-09T12:05:53.375Z,1019.12
2018-10-09T12:06:53.262Z,1019.07
2018-10-09T12:08:46.038Z,1019.12
2018-10-09T12:09:45.980Z,1019.11
2018-10-09T12:11:38.791Z,1019.13
2018-10-09T12:12:38.711Z,1019.16
2018-10-09T12:14:31.506Z,1019.13
2018-10-09T12:15:31.423Z,1019.15
2018-10-09T12:17:24.209Z,1019.11
2018-10-09T12:18:24.135Z,1019.14
2018-10-09T12:20:16.903Z,1019.10
2018-10-09T12:21:16.890Z,1019.13
2018-10-09T12:23:09.624Z,1019.14
2018-10-09T12:24:09.551Z,1019.08
2018-10-09T12:26:02.338Z,1019.09
2018-10-09T12:27:02.322Z,1019.11
2018-10-09T12:28:55.033Z,1019.10
2018-10-09T12:29:54.971Z,1019.04
2018-10-09T12:31:47.787Z,1019.03
2018-10-09T12:32:47.687Z,1018.95
2018-10-09T12:34:40.488Z,1018.97
2018-10-09T12:35:40.389Z,1018.96
2018-10-09T12:37:33.162Z,1018.92
2018-10-09T12:38:33.143Z,1018.99
2018-10-09T12:40:25.869Z,1018.94
2018-10-09T12:41:25.803Z,1018.96
2018-10-09T12:43:18.591Z,1018.99
2018-10-09T12:44:18.583Z,1018.99
2018-10-09T12:46:11.321Z,1018.98
2018-10-09T12:47:11.246Z,1018.97
2018-10-09T12:49:03.208Z,1018.97
2018-10-09T12:50:03.145Z,1018.99
2018-10-09T12:51:55.942Z,1018.98
2018-10-09T12:52:55.882Z,1018.98
2018-10-09T12:54:48.623Z,1018.98
2018-10-09T12:55:48.563Z,1019.00
2018-10-09T12:57:41.360Z,1018.98
2018-10-09T12:58:41.374Z,1018.97
2018-10-09T13:00:34.055Z,1018.98
2018-10-09T13:01:33.994Z,1018.97
2018-10-09T13:03:26.776Z,1018.94
2018-10-09T13:04:26.696Z,1018.91
2018-10-09T13:06:19.492Z,1018.85
2018-10-09T13:07:19.402Z,1018.84
2018-10-09T13:09:12.186Z,1018.77
2018-10-09T13:10:12.125Z,1018.73
2018-10-09T13:12:04.907Z,1018.78
2018-10-09T13:13:04.825Z,1018.77
2018-10-09T13:14:57.652Z,1018.77
2018-10-09T13:15:57.582Z,1018.83
2018-10-09T13:17:50.368Z,1018.76
2018-10-09T13:18:50.295Z,1018.78
2018-10-09T13:20:43.066Z,1018.75
2018-10-09T13:21:43.206Z,1018.77
2018-10-09T13:23:35.774Z,1018.80
2018-10-09T13:24:35.710Z,1018.78
2018-10-09T13:26:28.492Z,1018.82
2018-10-09T13:27:28.418Z,1018.85
2018-10-09T13:29:21.191Z,1018.88
2018-10-09T13:30:21.131Z,1018.89
2018-10-09T13:32:13.911Z,1018.88
2018-10-09T13:33:13.844Z,1018.89
2018-10-09T13:35:06.611Z,1018.86
2018-10-09T13:36:06.553Z,1018.88
2018-10-09T13:37:59.387Z,1018.87
2018-10-09T13:38:59.256Z,1018.87
2018-10-09T13:40:52.068Z,1018.83
2018-10-09T13:41:51.960Z,1018.84
2018-10-09T13:43:44.739Z,1018.82
2018-10-09T13:44:44.672Z,1018.76
2018-10-09T13:46:37.450Z,1018.70
2018-10-09T13:47:37.548Z,1018.66
2018-10-09T13:49:30.159Z,1018.65
2018-10-09T13:50:30.185Z,1018.65
2018-10-09T13:52:22.975Z,1018.62
2018-10-09T13:53:22.817Z,1018.63
2018-10-09T13:55:15.645Z,1018.61
2018-10-09T13:56:15.516Z,1018.57
2018-10-09T13:58:08.326Z,1018.57
2018-10-09T13:59:08.233Z,1018.56
2018-10-09T14:01:01.005Z,1018.52
2018-10-09T14:02:00.940Z,1018.49
2018-10-09T14:03:53.737Z,1018.45
2018-10-09T14:04:53.669Z,1018.43
2018-10-09T14:06:46.447Z,1018.42
2018-10-09T14:07:46.372Z,1018.38
2018-10-09T14:09:39.151Z,1018.32
2018-10-09T14:10:39.087Z,1018.31
2018-10-09T14:12:31.880Z,1018.30
2018-10-09T14:13:31.803Z,1018.24
2018-10-09T14:15:24.590Z,1018.18
2018-10-09T14:16:24.591Z,1018.18
2018-10-09T14:18:17.301Z,1018.14
2018-10-09T14:19:17.236Z,1018.13
2018-10-09T14:21:10.005Z,1018.10
2018-10-09T14:22:09.994Z,1018.08
2018-10-09T14:24:02.724Z,1018.06
2018-10-09T14:25:02.655Z,1018.00
2018-10-09T14:26:55.431Z,1018.03
2018-10-09T14:27:55.358Z,1017.98
2018-10-09T14:29:48.141Z,1017.99
2018-10-09T14:30:48.068Z,1017.97
2018-10-09T14:32:40.877Z,1017.97
2018-10-09T14:33:40.800Z,1017.92
2018-10-09T14:35:33.580Z,1017.91
2018-10-09T14:36:33.506Z,1017.91
2018-10-09T14:38:26.340Z,1017.91
2018-10-09T14:39:26.260Z,1017.91
2018-10-09T14:41:19.033Z,1017.98
2018-10-09T14:42:18.965Z,1017.98
2018-10-09T14:44:11.830Z,1017.94
2018-10-09T14:45:11.696Z,1017.98
2018-10-09T14:47:04.501Z,1017.98
2018-10-09T14:48:04.418Z,1018.02
2018-10-09T14:49:57.190Z,1018.01
2018-10-09T14:50:57.127Z,1018.01
2018-10-09T14:52:49.934Z,1018.03
2018-10-09T14:53:49.848Z,1018.01
2018-10-09T14:55:42.617Z,1018.04
2018-10-09T14:56:42.557Z,1017.99
2018-10-09T14:58:35.326Z,1018.04
2018-10-09T14:59:35.252Z,1018.05
2018-10-09T15:01:28.023Z,1018.05
2018-10-09T15:02:27.959Z,1018.04
2018-10-09T15:04:20.742Z,1018.02
2018-10-09T15:05:20.682Z,1018.04
2018-10-09T15:07:13.443Z,1017.98
2018-10-09T15:08:13.379Z,1018.00
2018-10-09T15:10:06.158Z,1017.99
2018-10-09T15:11:06.084Z,1018.05
2018-10-09T15:12:58.883Z,1018.06
2018-10-09T15:13:58.817Z,1018.03
2018-10-09T15:15:51.596Z,1018.05
2018-10-09T15:16:51.620Z,1018.09
2018-10-09T15:18:44.314Z,1018.11
2018-10-09T15:19:44.237Z,1018.14
2018-10-09T15:21:37.001Z,1018.17
2018-10-09T15:22:36.941Z,1018.18
2018-10-09T15:24:29.748Z,1018.16
2018-10-09T15:25:29.676Z,1018.16
2018-10-09T15:27:22.454Z,1018.17
2018-10-09T15:28:22.379Z,1018.22
2018-10-09T15:30:15.158Z,1018.19
2018-10-09T15:31:15.106Z,1018.20
2018-10-09T15:33:07.899Z,1018.23
2018-10-09T15:34:07.817Z,1018.21
2018-10-09T15:36:00.929Z,1018.20
2018-10-09T15:37:00.874Z,1018.17
2018-10-09T15:38:53.663Z,1018.14
2018-10-09T15:39:53.583Z,1018.16
2018-10-09T15:41:46.373Z,1018.10
2018-10-09T15:42:46.320Z,1018.09
2018-10-09T15:44:39.090Z,1018.11
2018-10-09T15:45:39.026Z,1018.14
2018-10-09T15:47:31.810Z,1018.16
2018-10-09T15:48:31.732Z,1018.15
2018-10-09T15:50:24.514Z,1018.17
2018-10-09T15:51:24.438Z,1018.19
2018-10-09T15:53:17.276Z,1018.23
2018-10-09T15:54:17.198Z,1018.29
2018-10-09T15:56:09.979Z,1018.28
2018-10-09T15:57:09.908Z,1018.30
2018-10-09T15:59:02.695Z,1018.30
2018-10-09T16:00:02.615Z,1018.31
2018-10-09T16:01:55.386Z,1018.27
2018-10-09T16:02:55.338Z,1018.31
2018-10-09T16:04:48.110Z,1018.27
2018-10-09T16:05:48.025Z,1018.25
2018-10-09T16:07:40.831Z,1018.25
2018-10-09T16:08:40.730Z,1018.27
2018-10-09T16:10:33.502Z,1018.25
2018-10-09T16:11:33.437Z,1018.25
2018-10-09T16:13:26.229Z,1018.21
2018-10-09T16:14:26.146Z,1018.27
2018-10-09T16:16:18.950Z,1018.27
2018-10-09T16:17:18.885Z,1018.24
2018-10-09T16:19:11.651Z,1018.25
2018-10-09T16:20:11.570Z,1018.23
2018-10-09T16:22:04.375Z,1018.25
2018-10-09T16:23:04.280Z,1018.24
2018-10-09T16:24:57.078Z,1018.22
2018-10-09T16:25:57.008Z,1018.23
2018-10-09T16:27:49.771Z,1018.25
2018-10-09T16:28:49.729Z,1018.29
2018-10-09T16:30:42.503Z,1018.32
2018-10-09T16:31:42.431Z,1018.29
2018-10-09T16:33:35.210Z,1018.39
2018-10-09T16:34:35.141Z,1018.42
2018-10-09T16:36:27.958Z,1018.45
2018-10-09T16:37:27.892Z,1018.43
2018-10-09T16:39:20.674Z,1018.43
2018-10-09T16:40:20.613Z,1018.46
2018-10-09T16:42:13.372Z,1018.45
2018-10-09T16:43:13.322Z,1018.46
2018-10-09T16:45:06.106Z,1018.45
2018-10-09T16:46:06.023Z,1018.50
2018-10-09T16:47:58.800Z,1018.50
2018-10-09T16:48:58.738Z,1018.52
2018-10-09T16:50:51.510Z,1018.49
2018-10-09T16:51:51.435Z,1018.50
2018-10-09T16:53:44.518Z,1018.51
2018-10-09T16:54:44.446Z,1018.49
2018-10-09T16:56:37.219Z,1018.51
2018-10-09T16:57:37.144Z,1018.55
2018-10-09T16:59:29.919Z,1018.54
2018-10-09T17:00:29.964Z,1018.54
2018-10-09T17:02:22.624Z,1018.58
2018-10-09T17:03:22.550Z,1018.59
2018-10-09T17:05:15.334Z,1018.59
2018-10-09T17:06:15.252Z,1018.60
2018-10-09T17:08:08.029Z,1018.59
2018-10-09T17:09:07.965Z,1018.61
2018-10-09T17:11:00.745Z,1018.62
2018-10-09T17:12:00.663Z,1018.64
2018-10-09T17:13:53.450Z,1018.62
2018-10-09T17:14:53.373Z,1018.62
2018-10-09T17:16:46.142Z,1018.67
2018-10-09T17:17:46.069Z,1018.63
2018-10-09T17:19:38.873Z,1018.62
2018-10-09T17:20:38.807Z,1018.66
2018-10-09T17:22:31.613Z,1018.64
2018-10-09T17:23:31.481Z,1018.64
2018-10-09T17:25:24.250Z,1018.64